sensor_id;sensor_type;location;lat;lon;timestamp;temperature;humidity
71047;SHT31;58703;48.978;8.982;2023-05-07T00:00:33;11.43;96.78
71047;SHT31;58703;48.978;8.982;2023-05-07T00:03:01;11.34;96.25
71047;SHT31;58703;48.978;8.982;2023-05-07T00:05:26;11.33;95.84
71047;SHT31;58703;48.978;8.982;2023-05-07T00:07:52;11.37;95.98
71047;SHT31;58703;48.978;8.982;2023-05-07T00:10:18;11.37;96.65
71047;SHT31;58703;48.978;8.982;2023-05-07T00:12:51;11.26;96.72
71047;SHT31;58703;48.978;8.982;2023-05-07T00:15:17;11.40;95.85
71047;SHT31;58703;48.978;8.982;2023-05-07T00:17:44;11.52;94.52
71047;SHT31;58703;48.978;8.982;2023-05-07T00:20:11;11.71;94.72
71047;SHT31;58703;48.978;8.982;2023-05-07T00:22:37;11.70;94.47
71047;SHT31;58703;48.978;8.982;2023-05-07T00:25:03;11.64;94.27
71047;SHT31;58703;48.978;8.982;2023-05-07T00:27:30;11.75;94.76
71047;SHT31;58703;48.978;8.982;2023-05-07T00:29:56;11.69;95.32
71047;SHT31;58703;48.978;8.982;2023-05-07T00:32:21;11.47;96.77
71047;SHT31;58703;48.978;8.982;2023-05-07T00:34:48;11.32;97.26
71047;SHT31;58703;48.978;8.982;2023-05-07T00:37:13;11.34;96.76
71047;SHT31;58703;48.978;8.982;2023-05-07T00:39:40;11.36;95.99
71047;SHT31;58703;48.978;8.982;2023-05-07T00:42:07;11.27;96.94
71047;SHT31;58703;48.978;8.982;2023-05-07T00:44:34;11.19;98.08
71047;SHT31;58703;48.978;8.982;2023-05-07T00:47:02;11.15;96.40
71047;SHT31;58703;48.978;8.982;2023-05-07T00:49:37;11.27;96.43
71047;SHT31;58703;48.978;8.982;2023-05-07T00:52:06;11.33;95.84
71047;SHT31;58703;48.978;8.982;2023-05-07T00:54:34;11.33;95.76
71047;SHT31;58703;48.978;8.982;2023-05-07T00:57:00;11.20;96.49
71047;SHT31;58703;48.978;8.982;2023-05-07T00:59:27;11.08;97.88
71047;SHT31;58703;48.978;8.982;2023-05-07T01:01:52;11.08;97.47
71047;SHT31;58703;48.978;8.982;2023-05-07T01:04:19;10.98;97.86
71047;SHT31;58703;48.978;8.982;2023-05-07T01:06:45;10.86;98.37
71047;SHT31;58703;48.978;8.982;2023-05-07T01:09:12;10.69;99.33
71047;SHT31;58703;48.978;8.982;2023-05-07T01:11:39;10.68;99.48
71047;SHT31;58703;48.978;8.982;2023-05-07T01:14:06;10.82;99.02
71047;SHT31;58703;48.978;8.982;2023-05-07T01:16:33;10.89;98.71
71047;SHT31;58703;48.978;8.982;2023-05-07T01:19:00;10.93;97.27
71047;SHT31;58703;48.978;8.982;2023-05-07T01:21:32;10.89;97.25
71047;SHT31;58703;48.978;8.982;2023-05-07T01:23:58;10.95;96.17
71047;SHT31;58703;48.978;8.982;2023-05-07T01:26:25;11.11;96.55
71047;SHT31;58703;48.978;8.982;2023-05-07T01:28:52;11.16;94.23
71047;SHT31;58703;48.978;8.982;2023-05-07T01:31:17;11.16;98.54
71047;SHT31;58703;48.978;8.982;2023-05-07T01:33:45;11.12;98.32
71047;SHT31;58703;48.978;8.982;2023-05-07T01:36:15;11.06;97.57
71047;SHT31;58703;48.978;8.982;2023-05-07T01:38:44;11.01;98.44
71047;SHT31;58703;48.978;8.982;2023-05-07T01:41:11;11.05;99.16
71047;SHT31;58703;48.978;8.982;2023-05-07T01:43:40;11.01;96.79
71047;SHT31;58703;48.978;8.982;2023-05-07T01:46:08;10.89;97.44
71047;SHT31;58703;48.978;8.982;2023-05-07T01:48:35;10.81;97.97
71047;SHT31;58703;48.978;8.982;2023-05-07T01:51:02;10.78;97.96
71047;SHT31;58703;48.978;8.982;2023-05-07T01:53:35;10.95;93.71
71047;SHT31;58703;48.978;8.982;2023-05-07T01:56:02;11.11;92.76
71047;SHT31;58703;48.978;8.982;2023-05-07T01:58:29;11.08;97.84
71047;SHT31;58703;48.978;8.982;2023-05-07T02:00:56;11.16;97.75
71047;SHT31;58703;48.978;8.982;2023-05-07T02:03:22;11.29;97.50
71047;SHT31;58703;48.978;8.982;2023-05-07T02:05:49;11.27;96.69
71047;SHT31;58703;48.978;8.982;2023-05-07T02:08:15;11.30;97.12
71047;SHT31;58703;48.978;8.982;2023-05-07T02:10:41;11.02;97.41
71047;SHT31;58703;48.978;8.982;2023-05-07T02:13:07;10.95;98.00
71047;SHT31;58703;48.978;8.982;2023-05-07T02:15:33;10.99;97.77
71047;SHT31;58703;48.978;8.982;2023-05-07T02:18:04;10.92;98.15
71047;SHT31;58703;48.978;8.982;2023-05-07T02:20:31;11.02;97.48
71047;SHT31;58703;48.978;8.982;2023-05-07T02:22:57;10.88;98.56
71047;SHT31;58703;48.978;8.982;2023-05-07T02:25:23;10.83;98.37
71047;SHT31;58703;48.978;8.982;2023-05-07T02:27:50;10.75;99.28
71047;SHT31;58703;48.978;8.982;2023-05-07T02:30:16;10.71;99.68
71047;SHT31;58703;48.978;8.982;2023-05-07T02:32:42;10.68;99.99
71047;SHT31;58703;48.978;8.982;2023-05-07T02:35:09;10.78;99.99
71047;SHT31;58703;48.978;8.982;2023-05-07T02:37:36;10.86;99.97
71047;SHT31;58703;48.978;8.982;2023-05-07T02:40:03;10.83;99.77
71047;SHT31;58703;48.978;8.982;2023-05-07T02:42:31;10.76;98.89
71047;SHT31;58703;48.978;8.982;2023-05-07T02:44:57;10.58;98.24
71047;SHT31;58703;48.978;8.982;2023-05-07T02:47:24;10.31;98.91
71047;SHT31;58703;48.978;8.982;2023-05-07T02:49:53;10.24;98.98
71047;SHT31;58703;48.978;8.982;2023-05-07T02:52:20;10.09;99.60
71047;SHT31;58703;48.978;8.982;2023-05-07T02:54:46;9.96;99.99
71047;SHT31;58703;48.978;8.982;2023-05-07T02:57:13;9.89;99.99
71047;SHT31;58703;48.978;8.982;2023-05-07T02:59:38;9.89;99.99
71047;SHT31;58703;48.978;8.982;2023-05-07T03:02:05;9.82;99.99
71047;SHT31;58703;48.978;8.982;2023-05-07T03:04:32;9.75;99.99
71047;SHT31;58703;48.978;8.982;2023-05-07T03:06:57;9.87;99.99
71047;SHT31;58703;48.978;8.982;2023-05-07T03:09:24;9.90;99.99
71047;SHT31;58703;48.978;8.982;2023-05-07T03:11:51;9.91;99.99
71047;SHT31;58703;48.978;8.982;2023-05-07T03:14:17;9.83;99.99
71047;SHT31;58703;48.978;8.982;2023-05-07T03:16:43;9.82;99.99
71047;SHT31;58703;48.978;8.982;2023-05-07T03:19:10;9.83;99.99
71047;SHT31;58703;48.978;8.982;2023-05-07T03:21:37;10.00;99.99
71047;SHT31;58703;48.978;8.982;2023-05-07T03:24:05;10.07;99.99
71047;SHT31;58703;48.978;8.982;2023-05-07T03:26:30;9.96;99.99
71047;SHT31;58703;48.978;8.982;2023-05-07T03:28:57;10.04;99.99
71047;SHT31;58703;48.978;8.982;2023-05-07T03:31:24;10.10;99.99
71047;SHT31;58703;48.978;8.982;2023-05-07T03:33:56;10.06;99.99
71047;SHT31;58703;48.978;8.982;2023-05-07T03:36:23;10.07;99.99
71047;SHT31;58703;48.978;8.982;2023-05-07T03:38:49;10.10;99.99
71047;SHT31;58703;48.978;8.982;2023-05-07T03:41:16;10.03;99.99
71047;SHT31;58703;48.978;8.982;2023-05-07T03:43:41;10.07;99.99
71047;SHT31;58703;48.978;8.982;2023-05-07T03:46:08;10.11;99.99
71047;SHT31;58703;48.978;8.982;2023-05-07T03:48:34;9.96;99.99
71047;SHT31;58703;48.978;8.982;2023-05-07T03:51:00;9.94;99.99
71047;SHT31;58703;48.978;8.982;2023-05-07T03:53:27;9.85;99.99
71047;SHT31;58703;48.978;8.982;2023-05-07T03:55:55;9.80;99.99
71047;SHT31;58703;48.978;8.982;2023-05-07T03:58:20;9.80;99.99
71047;SHT31;58703;48.978;8.982;2023-05-07T04:00:46;9.72;99.99
71047;SHT31;58703;48.978;8.982;2023-05-07T04:03:13;9.77;99.99
71047;SHT31;58703;48.978;8.982;2023-05-07T04:05:39;9.59;99.99
71047;SHT31;58703;48.978;8.982;2023-05-07T04:08:06;9.55;99.99
71047;SHT31;58703;48.978;8.982;2023-05-07T04:10:32;9.72;99.99
71047;SHT31;58703;48.978;8.982;2023-05-07T04:12:59;9.80;99.99
71047;SHT31;58703;48.978;8.982;2023-05-07T04:15:25;9.79;99.99
71047;SHT31;58703;48.978;8.982;2023-05-07T04:17:50;9.79;99.99
71047;SHT31;58703;48.978;8.982;2023-05-07T04:20:16;9.86;99.99
71047;SHT31;58703;48.978;8.982;2023-05-07T04:22:44;9.94;99.99
71047;SHT31;58703;48.978;8.982;2023-05-07T04:25:10;10.00;99.79
71047;SHT31;58703;48.978;8.982;2023-05-07T04:27:37;10.03;99.99
71047;SHT31;58703;48.978;8.982;2023-05-07T04:30:03;10.01;99.99
71047;SHT31;58703;48.978;8.982;2023-05-07T04:32:29;10.06;99.99
71047;SHT31;58703;48.978;8.982;2023-05-07T04:34:56;10.07;99.99
71047;SHT31;58703;48.978;8.982;2023-05-07T04:37:25;10.09;99.99
71047;SHT31;58703;48.978;8.982;2023-05-07T04:39:52;10.21;99.99
71047;SHT31;58703;48.978;8.982;2023-05-07T04:42:18;10.36;99.99
71047;SHT31;58703;48.978;8.982;2023-05-07T04:44:44;10.40;99.99
71047;SHT31;58703;48.978;8.982;2023-05-07T04:47:10;10.48;99.71
71047;SHT31;58703;48.978;8.982;2023-05-07T04:49:38;10.44;99.99
71047;SHT31;58703;48.978;8.982;2023-05-07T04:52:04;10.52;99.99
71047;SHT31;58703;48.978;8.982;2023-05-07T04:54:30;10.62;99.44
71047;SHT31;58703;48.978;8.982;2023-05-07T04:56:55;10.61;99.94
71047;SHT31;58703;48.978;8.982;2023-05-07T04:59:21;10.61;99.93
71047;SHT31;58703;48.978;8.982;2023-05-07T05:01:47;10.61;99.99
71047;SHT31;58703;48.978;8.982;2023-05-07T05:04:14;10.65;99.99
71047;SHT31;58703;48.978;8.982;2023-05-07T05:06:39;10.79;99.55
71047;SHT31;58703;48.978;8.982;2023-05-07T05:09:05;11.02;98.41
71047;SHT31;58703;48.978;8.982;2023-05-07T05:11:32;11.33;97.50
71047;SHT31;58703;48.978;8.982;2023-05-07T05:13:59;11.49;96.59
71047;SHT31;58703;48.978;8.982;2023-05-07T05:16:25;11.47;96.62
71047;SHT31;58703;48.978;8.982;2023-05-07T05:18:51;11.47;96.13
71047;SHT31;58703;48.978;8.982;2023-05-07T05:21:18;11.52;96.02
71047;SHT31;58703;48.978;8.982;2023-05-07T05:23:46;11.32;96.47
71047;SHT31;58703;48.978;8.982;2023-05-07T05:26:13;11.32;97.55
71047;SHT31;58703;48.978;8.982;2023-05-07T05:28:38;11.39;97.78
71047;SHT31;58703;48.978;8.982;2023-05-07T05:31:05;11.29;98.25
71047;SHT31;58703;48.978;8.982;2023-05-07T05:33:32;11.37;98.29
71047;SHT31;58703;48.978;8.982;2023-05-07T05:36:00;11.46;98.32
71047;SHT31;58703;48.978;8.982;2023-05-07T05:38:27;11.62;97.76
71047;SHT31;58703;48.978;8.982;2023-05-07T05:40:53;11.71;97.65
71047;SHT31;58703;48.978;8.982;2023-05-07T05:43:18;11.87;96.64
71047;SHT31;58703;48.978;8.982;2023-05-07T05:45:45;11.97;96.51
71047;SHT31;58703;48.978;8.982;2023-05-07T05:48:13;11.93;96.62
71047;SHT31;58703;48.978;8.982;2023-05-07T05:50:38;11.99;96.47
71047;SHT31;58703;48.978;8.982;2023-05-07T05:53:04;12.05;96.91
71047;SHT31;58703;48.978;8.982;2023-05-07T05:55:30;12.13;96.89
71047;SHT31;58703;48.978;8.982;2023-05-07T05:57:59;12.38;95.80
71047;SHT31;58703;48.978;8.982;2023-05-07T06:00:27;12.69;93.84
71047;SHT31;58703;48.978;8.982;2023-05-07T06:02:53;12.92;94.02
71047;SHT31;58703;48.978;8.982;2023-05-07T06:05:18;13.54;91.21
71047;SHT31;58703;48.978;8.982;2023-05-07T06:07:44;14.36;87.89
71047;SHT31;58703;48.978;8.982;2023-05-07T06:10:10;14.85;86.64
71047;SHT31;58703;48.978;8.982;2023-05-07T06:12:36;15.42;83.54
71047;SHT31;58703;48.978;8.982;2023-05-07T06:15:04;15.79;82.26
71047;SHT31;58703;48.978;8.982;2023-05-07T06:17:31;16.47;80.51
71047;SHT31;58703;48.978;8.982;2023-05-07T06:19:57;16.39;80.04
71047;SHT31;58703;48.978;8.982;2023-05-07T06:22:23;16.09;82.04
71047;SHT31;58703;48.978;8.982;2023-05-07T06:24:49;16.29;81.26
71047;SHT31;58703;48.978;8.982;2023-05-07T06:27:16;16.71;81.36
71047;SHT31;58703;48.978;8.982;2023-05-07T06:29:43;16.82;81.20
71047;SHT31;58703;48.978;8.982;2023-05-07T06:32:10;17.18;80.56
71047;SHT31;58703;48.978;8.982;2023-05-07T06:34:38;17.05;79.47
71047;SHT31;58703;48.978;8.982;2023-05-07T06:37:05;16.95;80.67
71047;SHT31;58703;48.978;8.982;2023-05-07T06:39:31;17.31;80.43
71047;SHT31;58703;48.978;8.982;2023-05-07T06:41:58;17.59;77.62
71047;SHT31;58703;48.978;8.982;2023-05-07T06:44:24;17.45;77.92
71047;SHT31;58703;48.978;8.982;2023-05-07T06:46:49;17.83;77.43
71047;SHT31;58703;48.978;8.982;2023-05-07T06:49:15;17.97;73.83
71047;SHT31;58703;48.978;8.982;2023-05-07T06:51:42;18.14;73.26
71047;SHT31;58703;48.978;8.982;2023-05-07T06:54:07;18.71;73.68
71047;SHT31;58703;48.978;8.982;2023-05-07T06:56:33;18.86;71.13
71047;SHT31;58703;48.978;8.982;2023-05-07T06:59:01;18.66;71.40
71047;SHT31;58703;48.978;8.982;2023-05-07T07:01:27;19.05;70.53
71047;SHT31;58703;48.978;8.982;2023-05-07T07:03:54;19.43;69.87
71047;SHT31;58703;48.978;8.982;2023-05-07T07:06:19;19.71;69.27
71047;SHT31;58703;48.978;8.982;2023-05-07T07:08:45;19.63;71.11
71047;SHT31;58703;48.978;8.982;2023-05-07T07:11:11;19.24;71.47
71047;SHT31;58703;48.978;8.982;2023-05-07T07:13:37;19.39;71.93
71047;SHT31;58703;48.978;8.982;2023-05-07T07:16:03;19.53;70.63
71047;SHT31;58703;48.978;8.982;2023-05-07T07:18:30;19.92;69.38
71047;SHT31;58703;48.978;8.982;2023-05-07T07:20:56;19.81;68.05
71047;SHT31;58703;48.978;8.982;2023-05-07T07:23:23;20.51;68.11
71047;SHT31;58703;48.978;8.982;2023-05-07T07:25:49;20.18;66.82
71047;SHT31;58703;48.978;8.982;2023-05-07T07:28:15;19.95;67.34
71047;SHT31;58703;48.978;8.982;2023-05-07T07:30:41;20.08;66.35
71047;SHT31;58703;48.978;8.982;2023-05-07T07:33:08;20.57;65.56
71047;SHT31;58703;48.978;8.982;2023-05-07T07:35:35;20.25;66.10
71047;SHT31;58703;48.978;8.982;2023-05-07T07:38:02;19.57;67.68
71047;SHT31;58703;48.978;8.982;2023-05-07T07:40:29;19.57;68.78
71047;SHT31;58703;48.978;8.982;2023-05-07T07:42:54;19.71;67.10
71047;SHT31;58703;48.978;8.982;2023-05-07T07:45:21;18.94;67.77
71047;SHT31;58703;48.978;8.982;2023-05-07T07:47:47;19.07;67.59
71047;SHT31;58703;48.978;8.982;2023-05-07T07:50:14;19.37;67.11
71047;SHT31;58703;48.978;8.982;2023-05-07T07:52:41;19.60;67.27
71047;SHT31;58703;48.978;8.982;2023-05-07T07:55:08;20.31;64.52
71047;SHT31;58703;48.978;8.982;2023-05-07T07:57:35;20.70;64.08
71047;SHT31;58703;48.978;8.982;2023-05-07T08:00:02;20.65;64.18
71047;SHT31;58703;48.978;8.982;2023-05-07T08:02:28;20.52;64.78
71047;SHT31;58703;48.978;8.982;2023-05-07T08:04:54;20.92;64.18
71047;SHT31;58703;48.978;8.982;2023-05-07T08:07:22;21.22;64.38
71047;SHT31;58703;48.978;8.982;2023-05-07T08:09:48;21.19;63.62
71047;SHT31;58703;48.978;8.982;2023-05-07T08:12:15;20.87;63.27
71047;SHT31;58703;48.978;8.982;2023-05-07T08:14:42;20.35;64.78
71047;SHT31;58703;48.978;8.982;2023-05-07T08:17:10;20.26;66.46
71047;SHT31;58703;48.978;8.982;2023-05-07T08:19:37;20.19;65.42
71047;SHT31;58703;48.978;8.982;2023-05-07T08:22:04;20.28;65.76
71047;SHT31;58703;48.978;8.982;2023-05-07T08:24:31;20.89;65.25
71047;SHT31;58703;48.978;8.982;2023-05-07T08:26:57;21.57;63.12
71047;SHT31;58703;48.978;8.982;2023-05-07T08:29:23;21.48;62.44
71047;SHT31;58703;48.978;8.982;2023-05-07T08:31:50;21.66;62.15
71047;SHT31;58703;48.978;8.982;2023-05-07T08:34:16;21.74;62.36
71047;SHT31;58703;48.978;8.982;2023-05-07T08:36:42;22.46;61.75
71047;SHT31;58703;48.978;8.982;2023-05-07T08:39:09;22.40;61.85
71047;SHT31;58703;48.978;8.982;2023-05-07T08:41:35;22.76;60.20
71047;SHT31;58703;48.978;8.982;2023-05-07T08:44:03;22.59;61.42
71047;SHT31;58703;48.978;8.982;2023-05-07T08:46:31;22.20;61.41
71047;SHT31;58703;48.978;8.982;2023-05-07T08:48:57;22.53;60.75
71047;SHT31;58703;48.978;8.982;2023-05-07T08:51:25;22.96;59.30
71047;SHT31;58703;48.978;8.982;2023-05-07T08:53:52;22.59;59.83
71047;SHT31;58703;48.978;8.982;2023-05-07T08:56:17;22.30;60.01
71047;SHT31;58703;48.978;8.982;2023-05-07T08:58:45;22.20;60.52
71047;SHT31;58703;48.978;8.982;2023-05-07T09:01:15;22.49;60.35
71047;SHT31;58703;48.978;8.982;2023-05-07T09:03:50;22.60;60.27
71047;SHT31;58703;48.978;8.982;2023-05-07T09:06:22;22.26;60.83
71047;SHT31;58703;48.978;8.982;2023-05-07T09:08:56;22.15;61.03
71047;SHT31;58703;48.978;8.982;2023-05-07T09:11:25;22.39;61.17
71047;SHT31;58703;48.978;8.982;2023-05-07T09:13:54;21.94;62.80
71047;SHT31;58703;48.978;8.982;2023-05-07T09:16:22;22.42;61.98
71047;SHT31;58703;48.978;8.982;2023-05-07T09:18:51;22.55;61.19
71047;SHT31;58703;48.978;8.982;2023-05-07T09:21:19;23.55;58.30
71047;SHT31;58703;48.978;8.982;2023-05-07T09:23:45;22.80;60.33
71047;SHT31;58703;48.978;8.982;2023-05-07T09:26:15;22.88;59.95
71047;SHT31;58703;48.978;8.982;2023-05-07T09:28:42;23.39;59.64
71047;SHT31;58703;48.978;8.982;2023-05-07T09:31:09;23.71;59.72
71047;SHT31;58703;48.978;8.982;2023-05-07T09:33:36;23.86;58.48
71047;SHT31;58703;48.978;8.982;2023-05-07T09:36:07;23.68;58.33
71047;SHT31;58703;48.978;8.982;2023-05-07T09:38:34;23.85;58.58
71047;SHT31;58703;48.978;8.982;2023-05-07T09:41:12;23.90;58.48
71047;SHT31;58703;48.978;8.982;2023-05-07T09:43:42;23.81;59.09
71047;SHT31;58703;48.978;8.982;2023-05-07T09:46:13;24.53;56.76
71047;SHT31;58703;48.978;8.982;2023-05-07T09:48:40;24.26;57.22
71047;SHT31;58703;48.978;8.982;2023-05-07T09:51:32;23.44;58.33
71047;SHT31;58703;48.978;8.982;2023-05-07T09:54:01;23.78;59.21
71047;SHT31;58703;48.978;8.982;2023-05-07T09:56:30;24.54;57.60
71047;SHT31;58703;48.978;8.982;2023-05-07T09:59:02;24.44;55.46
71047;SHT31;58703;48.978;8.982;2023-05-07T10:01:33;24.44;56.89
71047;SHT31;58703;48.978;8.982;2023-05-07T10:04:05;25.90;56.15
71047;SHT31;58703;48.978;8.982;2023-05-07T10:06:35;25.82;54.42
71047;SHT31;58703;48.978;8.982;2023-05-07T10:09:02;25.76;54.45
71047;SHT31;58703;48.978;8.982;2023-05-07T10:11:28;24.34;56.60
71047;SHT31;58703;48.978;8.982;2023-05-07T10:13:54;24.50;56.94
71047;SHT31;58703;48.978;8.982;2023-05-07T10:16:25;25.08;54.64
71047;SHT31;58703;48.978;8.982;2023-05-07T10:18:54;25.31;55.33
71047;SHT31;58703;48.978;8.982;2023-05-07T10:21:23;26.37;54.08
71047;SHT31;58703;48.978;8.982;2023-05-07T10:23:50;26.30;52.96
71047;SHT31;58703;48.978;8.982;2023-05-07T10:26:20;26.54;53.20
71047;SHT31;58703;48.978;8.982;2023-05-07T10:28:52;26.91;51.26
71047;SHT31;58703;48.978;8.982;2023-05-07T10:34:22;24.77;54.77
71047;SHT31;58703;48.978;8.982;2023-05-07T10:36:49;25.34;54.23
71047;SHT31;58703;48.978;8.982;2023-05-07T10:39:16;25.75;53.22
71047;SHT31;58703;48.978;8.982;2023-05-07T10:41:41;24.80;52.91
71047;SHT31;58703;48.978;8.982;2023-05-07T10:44:07;25.25;53.27
71047;SHT31;58703;48.978;8.982;2023-05-07T10:46:34;25.94;52.82
71047;SHT31;58703;48.978;8.982;2023-05-07T10:49:09;26.62;51.56
71047;SHT31;58703;48.978;8.982;2023-05-07T10:51:36;26.52;51.30
71047;SHT31;58703;48.978;8.982;2023-05-07T10:56:42;26.68;51.84
71047;SHT31;58703;48.978;8.982;2023-05-07T10:59:36;27.00;50.36
71047;SHT31;58703;48.978;8.982;2023-05-07T11:02:07;26.96;50.38
71047;SHT31;58703;48.978;8.982;2023-05-07T11:04:37;27.25;50.16
71047;SHT31;58703;48.978;8.982;2023-05-07T11:07:24;27.33;48.84
71047;SHT31;58703;48.978;8.982;2023-05-07T11:09:55;28.17;48.25
71047;SHT31;58703;48.978;8.982;2023-05-07T11:15:14;28.64;47.74
71047;SHT31;58703;48.978;8.982;2023-05-07T11:17:58;28.38;49.35
71047;SHT31;58703;48.978;8.982;2023-05-07T11:20:53;28.34;46.63
71047;SHT31;58703;48.978;8.982;2023-05-07T11:26:07;26.92;49.99
71047;SHT31;58703;48.978;8.982;2023-05-07T11:28:38;27.50;48.64
71047;SHT31;58703;48.978;8.982;2023-05-07T11:31:04;26.98;48.97
71047;SHT31;58703;48.978;8.982;2023-05-07T11:33:32;27.71;47.86
71047;SHT31;58703;48.978;8.982;2023-05-07T11:36:03;29.15;46.00
71047;SHT31;58703;48.978;8.982;2023-05-07T11:38:37;28.35;47.27
71047;SHT31;58703;48.978;8.982;2023-05-07T11:41:07;27.76;47.69
71047;SHT31;58703;48.978;8.982;2023-05-07T11:43:35;27.54;48.59
71047;SHT31;58703;48.978;8.982;2023-05-07T11:46:10;28.03;47.56
71047;SHT31;58703;48.978;8.982;2023-05-07T11:48:41;27.94;47.80
71047;SHT31;58703;48.978;8.982;2023-05-07T11:51:16;27.53;48.42
71047;SHT31;58703;48.978;8.982;2023-05-07T11:53:45;27.87;47.44
71047;SHT31;58703;48.978;8.982;2023-05-07T11:56:15;27.87;47.46
71047;SHT31;58703;48.978;8.982;2023-05-07T11:58:46;26.72;49.69
71047;SHT31;58703;48.978;8.982;2023-05-07T12:01:15;25.46;51.02
71047;SHT31;58703;48.978;8.982;2023-05-07T12:03:43;25.38;52.21
71047;SHT31;58703;48.978;8.982;2023-05-07T12:06:12;26.54;50.59
71047;SHT31;58703;48.978;8.982;2023-05-07T12:08:44;26.88;49.08
71047;SHT31;58703;48.978;8.982;2023-05-07T12:11:14;26.72;48.77
71047;SHT31;58703;48.978;8.982;2023-05-07T12:13:43;27.80;46.63
71047;SHT31;58703;48.978;8.982;2023-05-07T12:16:09;27.90;47.79
71047;SHT31;58703;48.978;8.982;2023-05-07T12:18:37;27.09;47.00
71047;SHT31;58703;48.978;8.982;2023-05-07T12:21:18;29.16;44.08
71047;SHT31;58703;48.978;8.982;2023-05-07T12:23:50;27.52;46.66
71047;SHT31;58703;48.978;8.982;2023-05-07T12:26:16;27.77;45.64
71047;SHT31;58703;48.978;8.982;2023-05-07T12:28:41;28.28;44.72
71047;SHT31;58703;48.978;8.982;2023-05-07T12:31:07;28.82;44.77
71047;SHT31;58703;48.978;8.982;2023-05-07T12:33:35;27.96;45.95
71047;SHT31;58703;48.978;8.982;2023-05-07T12:36:06;28.32;45.55
71047;SHT31;58703;48.978;8.982;2023-05-07T12:38:38;30.14;43.62
71047;SHT31;58703;48.978;8.982;2023-05-07T12:41:10;28.96;44.77
71047;SHT31;58703;48.978;8.982;2023-05-07T12:43:43;27.61;46.63
71047;SHT31;58703;48.978;8.982;2023-05-07T12:46:12;27.98;47.59
71047;SHT31;58703;48.978;8.982;2023-05-07T12:48:45;27.05;48.20
71047;SHT31;58703;48.978;8.982;2023-05-07T12:51:11;27.16;48.49
71047;SHT31;58703;48.978;8.982;2023-05-07T12:53:42;26.68;47.06
71047;SHT31;58703;48.978;8.982;2023-05-07T12:56:09;26.55;49.08
71047;SHT31;58703;48.978;8.982;2023-05-07T12:58:36;26.62;47.87
71047;SHT31;58703;48.978;8.982;2023-05-07T13:01:07;26.13;49.78
71047;SHT31;58703;48.978;8.982;2023-05-07T13:03:34;25.65;50.65
71047;SHT31;58703;48.978;8.982;2023-05-07T13:06:06;25.42;51.82
71047;SHT31;58703;48.978;8.982;2023-05-07T13:08:35;25.18;51.90
71047;SHT31;58703;48.978;8.982;2023-05-07T13:11:07;25.65;50.21
71047;SHT31;58703;48.978;8.982;2023-05-07T13:13:35;25.18;53.06
71047;SHT31;58703;48.978;8.982;2023-05-07T13:16:05;23.83;58.45
71047;SHT31;58703;48.978;8.982;2023-05-07T13:18:32;23.61;59.29
71047;SHT31;58703;48.978;8.982;2023-05-07T13:20:58;23.54;58.69
71047;SHT31;58703;48.978;8.982;2023-05-07T13:23:26;22.71;63.36
71047;SHT31;58703;48.978;8.982;2023-05-07T13:25:52;22.40;64.53
71047;SHT31;58703;48.978;8.982;2023-05-07T13:28:19;21.81;66.78
71047;SHT31;58703;48.978;8.982;2023-05-07T13:30:46;21.41;67.85
71047;SHT31;58703;48.978;8.982;2023-05-07T13:33:13;21.15;69.05
71047;SHT31;58703;48.978;8.982;2023-05-07T13:35:42;20.90;67.64
71047;SHT31;58703;48.978;8.982;2023-05-07T13:38:08;20.63;66.61
71047;SHT31;58703;48.978;8.982;2023-05-07T13:40:36;20.49;66.84
71047;SHT31;58703;48.978;8.982;2023-05-07T13:43:05;20.51;67.86
71047;SHT31;58703;48.978;8.982;2023-05-07T13:45:34;20.46;66.87
71047;SHT31;58703;48.978;8.982;2023-05-07T13:48:05;20.26;66.42
71047;SHT31;58703;48.978;8.982;2023-05-07T13:50:31;20.17;67.16
71047;SHT31;58703;48.978;8.982;2023-05-07T13:52:56;19.68;71.77
71047;SHT31;58703;48.978;8.982;2023-05-07T13:55:24;19.26;73.42
71047;SHT31;58703;48.978;8.982;2023-05-07T13:58:00;18.54;76.87
71047;SHT31;58703;48.978;8.982;2023-05-07T14:00:27;18.00;78.91
71047;SHT31;58703;48.978;8.982;2023-05-07T14:02:54;18.00;78.14
71047;SHT31;58703;48.978;8.982;2023-05-07T14:05:22;17.86;78.30
71047;SHT31;58703;48.978;8.982;2023-05-07T14:07:52;17.56;81.53
71047;SHT31;58703;48.978;8.982;2023-05-07T14:10:19;16.96;85.57
71047;SHT31;58703;48.978;8.982;2023-05-07T14:12:46;16.30;88.89
71047;SHT31;58703;48.978;8.982;2023-05-07T14:15:12;15.93;92.35
71047;SHT31;58703;48.978;8.982;2023-05-07T14:17:40;15.73;93.72
71047;SHT31;58703;48.978;8.982;2023-05-07T14:20:06;15.73;95.48
71047;SHT31;58703;48.978;8.982;2023-05-07T14:22:33;15.70;94.64
71047;SHT31;58703;48.978;8.982;2023-05-07T14:24:59;15.82;96.44
71047;SHT31;58703;48.978;8.982;2023-05-07T14:27:25;15.88;97.87
71047;SHT31;58703;48.978;8.982;2023-05-07T14:29:52;15.78;98.47
71047;SHT31;58703;48.978;8.982;2023-05-07T14:32:18;15.62;98.72
71047;SHT31;58703;48.978;8.982;2023-05-07T14:34:46;15.56;98.51
71047;SHT31;58703;48.978;8.982;2023-05-07T14:37:12;15.52;99.39
71047;SHT31;58703;48.978;8.982;2023-05-07T14:39:38;15.39;97.94
71047;SHT31;58703;48.978;8.982;2023-05-07T14:42:06;15.48;99.43
71047;SHT31;58703;48.978;8.982;2023-05-07T14:44:36;15.30;98.32
71047;SHT31;58703;48.978;8.982;2023-05-07T14:47:02;15.32;98.66
71047;SHT31;58703;48.978;8.982;2023-05-07T14:49:28;15.39;99.22
71047;SHT31;58703;48.978;8.982;2023-05-07T14:51:57;15.41;99.24
71047;SHT31;58703;48.978;8.982;2023-05-07T14:54:25;15.38;99.75
71047;SHT31;58703;48.978;8.982;2023-05-07T14:56:52;15.55;99.99
71047;SHT31;58703;48.978;8.982;2023-05-07T14:59:20;15.42;99.80
71047;SHT31;58703;48.978;8.982;2023-05-07T15:01:48;15.44;99.15
71047;SHT31;58703;48.978;8.982;2023-05-07T15:04:13;15.45;99.28
71047;SHT31;58703;48.978;8.982;2023-05-07T15:06:40;15.39;98.83
71047;SHT31;58703;48.978;8.982;2023-05-07T15:09:06;15.48;99.57
71047;SHT31;58703;48.978;8.982;2023-05-07T15:11:34;15.59;99.96
71047;SHT31;58703;48.978;8.982;2023-05-07T15:14:00;15.68;99.81
71047;SHT31;58703;48.978;8.982;2023-05-07T15:16:28;15.75;99.63
71047;SHT31;58703;48.978;8.982;2023-05-07T15:18:54;15.85;99.75
71047;SHT31;58703;48.978;8.982;2023-05-07T15:21:21;15.82;98.68
71047;SHT31;58703;48.978;8.982;2023-05-07T15:23:47;15.86;98.53
71047;SHT31;58703;48.978;8.982;2023-05-07T15:26:13;15.97;99.00
71047;SHT31;58703;48.978;8.982;2023-05-07T15:28:38;15.96;99.08
71047;SHT31;58703;48.978;8.982;2023-05-07T15:31:05;16.06;99.95
71047;SHT31;58703;48.978;8.982;2023-05-07T15:33:32;15.92;99.99
71047;SHT31;58703;48.978;8.982;2023-05-07T15:36:00;15.63;99.85
71047;SHT31;58703;48.978;8.982;2023-05-07T15:38:26;15.58;99.99
71047;SHT31;58703;48.978;8.982;2023-05-07T15:40:53;15.61;99.99
71047;SHT31;58703;48.978;8.982;2023-05-07T15:43:22;15.63;99.83
71047;SHT31;58703;48.978;8.982;2023-05-07T15:45:49;15.70;99.40